logo
Search for airport 
image banner adimage banner adimage banner ad
image banner ad

EPGI - Lisie Katy K/Grudziadza

Located in , Poland

ICAO - EPGI, IATA -

Data provided by Airmate  

General information

Coordinates: N53°31'28" E18°50'58"
Elevation is 106 feet MSL.
Magnetic variation is 5.0000° East
Rated:
View ratings:
[VIEW]
View others Airports in Kuyavia-Pomerania

Operational data

Special qualification required
Current time UTC:
Current local time:
Weather at : EPMB - Malbork ( 59 km )
TAF: TAF EPMB 191100Z 1912/1924 21008KT 9999 BKN025 TEMPO 1912/1919 6000 SHRA SCT007 BKN015CB BECMG 1919/1921 5000 RADZ BKN005 BKN012 BECMG 1916/1918 06010KT
View NOTAMs / SUP AIP / TFR affecting this airport [VIEW]
Communications frequencies: [VIEW]

Runways:

RWY identifierQFULength (ft)Width (ft)SurfaceLDA (ft)
13135°3051656GRASS
31315°3051656GRASS

Airport contact information

Address: Poland

Other aviation service providers

Aviation club (not for profit)

Aeroklub Nadwiślański

Aeroklub Nadwiślański
dyrektor@lisie.pl+48564681832
Rated:
View ratings:
[VIEW]

Satellite view of EPGI